sensor_id;sensor_type;location;lat;lon;timestamp;P1;durP1;ratioP1;P2;durP2;ratioP2
10381;SDS011;11635;53.636;10.120;2023-01-30T00:01:20;62.65;;;36.63;;
10381;SDS011;11635;53.636;10.120;2023-01-30T00:03:46;65.82;;;38.53;;
10381;SDS011;11635;53.636;10.120;2023-01-30T00:06:13;66.82;;;39.42;;
10381;SDS011;11635;53.636;10.120;2023-01-30T00:08:39;68.18;;;39.28;;
10381;SDS011;11635;53.636;10.120;2023-01-30T00:11:06;67.68;;;40.50;;
10381;SDS011;11635;53.636;10.120;2023-01-30T00:13:34;64.07;;;37.22;;
10381;SDS011;11635;53.636;10.120;2023-01-30T00:16:00;68.30;;;37.78;;
10381;SDS011;11635;53.636;10.120;2023-01-30T00:18:28;65.63;;;39.72;;
10381;SDS011;11635;53.636;10.120;2023-01-30T00:20:55;65.03;;;38.08;;
10381;SDS011;11635;53.636;10.120;2023-01-30T00:23:21;68.53;;;38.58;;
10381;SDS011;11635;53.636;10.120;2023-01-30T00:25:48;66.97;;;37.45;;
10381;SDS011;11635;53.636;10.120;2023-01-30T00:28:14;64.25;;;37.88;;
10381;SDS011;11635;53.636;10.120;2023-01-30T00:30:40;67.40;;;38.67;;
10381;SDS011;11635;53.636;10.120;2023-01-30T00:33:07;65.45;;;38.38;;
10381;SDS011;11635;53.636;10.120;2023-01-30T00:35:35;65.47;;;38.88;;
10381;SDS011;11635;53.636;10.120;2023-01-30T00:38:02;65.28;;;39.78;;
10381;SDS011;11635;53.636;10.120;2023-01-30T00:40:28;68.25;;;38.85;;
10381;SDS011;11635;53.636;10.120;2023-01-30T00:42:55;71.88;;;39.22;;
10381;SDS011;11635;53.636;10.120;2023-01-30T00:45:38;72.68;;;40.58;;
10381;SDS011;11635;53.636;10.120;2023-01-30T00:48:23;64.90;;;38.22;;
10381;SDS011;11635;53.636;10.120;2023-01-30T00:50:51;61.40;;;38.60;;
10381;SDS011;11635;53.636;10.120;2023-01-30T00:53:17;62.95;;;37.55;;
10381;SDS011;11635;53.636;10.120;2023-01-30T00:55:43;66.20;;;37.30;;
10381;SDS011;11635;53.636;10.120;2023-01-30T00:58:10;59.42;;;38.60;;
10381;SDS011;11635;53.636;10.120;2023-01-30T01:00:36;66.28;;;39.58;;
10381;SDS011;11635;53.636;10.120;2023-01-30T01:03:03;64.65;;;38.67;;
10381;SDS011;11635;53.636;10.120;2023-01-30T01:05:29;58.40;;;35.60;;
10381;SDS011;11635;53.636;10.120;2023-01-30T01:07:57;59.85;;;34.72;;
10381;SDS011;11635;53.636;10.120;2023-01-30T01:10:23;63.60;;;37.03;;
10381;SDS011;11635;53.636;10.120;2023-01-30T01:12:49;67.45;;;38.30;;
10381;SDS011;11635;53.636;10.120;2023-01-30T01:15:17;59.20;;;33.92;;
10381;SDS011;11635;53.636;10.120;2023-01-30T01:17:44;60.33;;;35.42;;
10381;SDS011;11635;53.636;10.120;2023-01-30T01:20:10;59.03;;;34.63;;
10381;SDS011;11635;53.636;10.120;2023-01-30T01:22:37;55.72;;;33.65;;
10381;SDS011;11635;53.636;10.120;2023-01-30T01:25:05;58.70;;;33.38;;
10381;SDS011;11635;53.636;10.120;2023-01-30T01:27:32;60.85;;;34.28;;
10381;SDS011;11635;53.636;10.120;2023-01-30T01:29:58;58.47;;;34.65;;
10381;SDS011;11635;53.636;10.120;2023-01-30T01:32:24;50.97;;;33.05;;
10381;SDS011;11635;53.636;10.120;2023-01-30T01:34:51;55.75;;;33.08;;
10381;SDS011;11635;53.636;10.120;2023-01-30T01:37:17;55.15;;;32.53;;
10381;SDS011;11635;53.636;10.120;2023-01-30T01:39:43;55.33;;;32.38;;
10381;SDS011;11635;53.636;10.120;2023-01-30T01:42:29;57.78;;;30.83;;
10381;SDS011;11635;53.636;10.120;2023-01-30T01:45:03;56.28;;;31.65;;
10381;SDS011;11635;53.636;10.120;2023-01-30T01:47:31;55.10;;;31.55;;
10381;SDS011;11635;53.636;10.120;2023-01-30T01:49:58;56.67;;;30.88;;
10381;SDS011;11635;53.636;10.120;2023-01-30T01:52:25;54.50;;;30.30;;
10381;SDS011;11635;53.636;10.120;2023-01-30T01:54:52;63.20;;;33.53;;
10381;SDS011;11635;53.636;10.120;2023-01-30T01:57:21;53.38;;;33.00;;
10381;SDS011;11635;53.636;10.120;2023-01-30T01:59:50;54.67;;;31.23;;
10381;SDS011;11635;53.636;10.120;2023-01-30T02:02:17;49.53;;;29.92;;
10381;SDS011;11635;53.636;10.120;2023-01-30T02:04:45;50.30;;;30.08;;
10381;SDS011;11635;53.636;10.120;2023-01-30T02:07:28;53.67;;;30.63;;
10381;SDS011;11635;53.636;10.120;2023-01-30T02:09:57;46.47;;;29.95;;
10381;SDS011;11635;53.636;10.120;2023-01-30T02:12:24;45.92;;;29.00;;
10381;SDS011;11635;53.636;10.120;2023-01-30T02:14:52;47.20;;;26.55;;
10381;SDS011;11635;53.636;10.120;2023-01-30T02:17:19;39.95;;;26.85;;
10381;SDS011;11635;53.636;10.120;2023-01-30T02:19:46;48.92;;;27.45;;
10381;SDS011;11635;53.636;10.120;2023-01-30T02:22:30;43.90;;;26.77;;
10381;SDS011;11635;53.636;10.120;2023-01-30T02:27:52;46.53;;;26.95;;
10381;SDS011;11635;53.636;10.120;2023-01-30T02:33:17;42.78;;;26.90;;
10381;SDS011;11635;53.636;10.120;2023-01-30T02:35:46;41.85;;;27.17;;
10381;SDS011;11635;53.636;10.120;2023-01-30T02:38:21;43.22;;;27.23;;
10381;SDS011;11635;53.636;10.120;2023-01-30T02:40:51;40.90;;;26.27;;
10381;SDS011;11635;53.636;10.120;2023-01-30T02:43:22;43.97;;;26.52;;
10381;SDS011;11635;53.636;10.120;2023-01-30T02:45:51;43.47;;;25.88;;
10381;SDS011;11635;53.636;10.120;2023-01-30T02:48:21;44.50;;;27.00;;
10381;SDS011;11635;53.636;10.120;2023-01-30T02:50:51;44.42;;;26.27;;
10381;SDS011;11635;53.636;10.120;2023-01-30T02:53:19;46.28;;;26.80;;
10381;SDS011;11635;53.636;10.120;2023-01-30T02:55:45;41.90;;;24.98;;
10381;SDS011;11635;53.636;10.120;2023-01-30T02:58:12;42.28;;;24.83;;
10381;SDS011;11635;53.636;10.120;2023-01-30T03:00:58;39.47;;;25.17;;
10381;SDS011;11635;53.636;10.120;2023-01-30T03:03:42;40.33;;;24.95;;
10381;SDS011;11635;53.636;10.120;2023-01-30T03:09:01;41.78;;;23.67;;
10381;SDS011;11635;53.636;10.120;2023-01-30T03:11:33;43.53;;;23.92;;
10381;SDS011;11635;53.636;10.120;2023-01-30T03:14:05;35.80;;;22.58;;
10381;SDS011;11635;53.636;10.120;2023-01-30T03:16:34;37.83;;;23.05;;
10381;SDS011;11635;53.636;10.120;2023-01-30T03:19:04;35.33;;;22.40;;
10381;SDS011;11635;53.636;10.120;2023-01-30T03:21:31;45.08;;;23.25;;
10381;SDS011;11635;53.636;10.120;2023-01-30T03:23:57;39.17;;;22.17;;
10381;SDS011;11635;53.636;10.120;2023-01-30T03:26:24;36.30;;;22.10;;
10381;SDS011;11635;53.636;10.120;2023-01-30T03:28:51;36.25;;;22.08;;
10381;SDS011;11635;53.636;10.120;2023-01-30T03:31:18;38.45;;;22.40;;
10381;SDS011;11635;53.636;10.120;2023-01-30T03:33:44;33.47;;;20.52;;
10381;SDS011;11635;53.636;10.120;2023-01-30T03:36:12;31.17;;;19.00;;
10381;SDS011;11635;53.636;10.120;2023-01-30T03:38:38;33.70;;;20.00;;
10381;SDS011;11635;53.636;10.120;2023-01-30T03:41:05;37.47;;;19.65;;
10381;SDS011;11635;53.636;10.120;2023-01-30T03:43:31;30.77;;;19.60;;
10381;SDS011;11635;53.636;10.120;2023-01-30T03:45:57;30.23;;;19.63;;
10381;SDS011;11635;53.636;10.120;2023-01-30T03:48:24;30.27;;;18.10;;
10381;SDS011;11635;53.636;10.120;2023-01-30T03:50:50;29.25;;;18.38;;
10381;SDS011;11635;53.636;10.120;2023-01-30T03:53:18;29.63;;;17.45;;
10381;SDS011;11635;53.636;10.120;2023-01-30T03:55:44;28.98;;;17.42;;
10381;SDS011;11635;53.636;10.120;2023-01-30T03:58:10;30.13;;;18.10;;
10381;SDS011;11635;53.636;10.120;2023-01-30T04:00:37;24.80;;;17.05;;
10381;SDS011;11635;53.636;10.120;2023-01-30T04:03:03;29.63;;;16.85;;
10381;SDS011;11635;53.636;10.120;2023-01-30T04:05:29;26.95;;;16.55;;
10381;SDS011;11635;53.636;10.120;2023-01-30T04:07:55;25.95;;;16.15;;
10381;SDS011;11635;53.636;10.120;2023-01-30T04:10:23;26.10;;;15.80;;
10381;SDS011;11635;53.636;10.120;2023-01-30T04:12:50;22.60;;;14.93;;
10381;SDS011;11635;53.636;10.120;2023-01-30T04:15:16;23.15;;;14.70;;
10381;SDS011;11635;53.636;10.120;2023-01-30T04:17:43;24.95;;;14.85;;
10381;SDS011;11635;53.636;10.120;2023-01-30T04:20:09;24.95;;;14.23;;
10381;SDS011;11635;53.636;10.120;2023-01-30T04:22:36;19.30;;;13.18;;
10381;SDS011;11635;53.636;10.120;2023-01-30T04:25:02;22.00;;;11.65;;
10381;SDS011;11635;53.636;10.120;2023-01-30T04:27:30;16.90;;;8.55;;
10381;SDS011;11635;53.636;10.120;2023-01-30T04:29:56;13.48;;;6.40;;
10381;SDS011;11635;53.636;10.120;2023-01-30T04:32:24;8.57;;;4.18;;
10381;SDS011;11635;53.636;10.120;2023-01-30T04:34:50;6.18;;;2.58;;
10381;SDS011;11635;53.636;10.120;2023-01-30T04:37:16;8.45;;;3.47;;
10381;SDS011;11635;53.636;10.120;2023-01-30T04:39:43;7.47;;;3.03;;
10381;SDS011;11635;53.636;10.120;2023-01-30T04:42:09;6.13;;;2.28;;
10381;SDS011;11635;53.636;10.120;2023-01-30T04:44:37;3.60;;;2.22;;
10381;SDS011;11635;53.636;10.120;2023-01-30T04:47:03;6.30;;;1.88;;
10381;SDS011;11635;53.636;10.120;2023-01-30T04:49:29;4.25;;;2.13;;
10381;SDS011;11635;53.636;10.120;2023-01-30T04:51:56;5.55;;;2.38;;
10381;SDS011;11635;53.636;10.120;2023-01-30T04:54:22;5.05;;;2.40;;
10381;SDS011;11635;53.636;10.120;2023-01-30T04:56:48;5.80;;;2.40;;
10381;SDS011;11635;53.636;10.120;2023-01-30T04:59:15;6.47;;;3.28;;
10381;SDS011;11635;53.636;10.120;2023-01-30T05:01:42;7.20;;;2.45;;
10381;SDS011;11635;53.636;10.120;2023-01-30T05:04:09;4.45;;;2.28;;
10381;SDS011;11635;53.636;10.120;2023-01-30T05:06:35;8.75;;;3.45;;
10381;SDS011;11635;53.636;10.120;2023-01-30T05:09:01;6.30;;;2.70;;
10381;SDS011;11635;53.636;10.120;2023-01-30T05:11:28;8.73;;;3.92;;
10381;SDS011;11635;53.636;10.120;2023-01-30T05:13:56;9.48;;;3.53;;
10381;SDS011;11635;53.636;10.120;2023-01-30T05:16:22;10.88;;;4.07;;
10381;SDS011;11635;53.636;10.120;2023-01-30T05:18:50;9.45;;;3.95;;
10381;SDS011;11635;53.636;10.120;2023-01-30T05:21:17;9.35;;;3.55;;
10381;SDS011;11635;53.636;10.120;2023-01-30T05:23:43;9.68;;;4.43;;
10381;SDS011;11635;53.636;10.120;2023-01-30T05:26:10;8.88;;;4.40;;
10381;SDS011;11635;53.636;10.120;2023-01-30T05:28:37;9.63;;;4.25;;
10381;SDS011;11635;53.636;10.120;2023-01-30T05:31:03;10.15;;;4.47;;
10381;SDS011;11635;53.636;10.120;2023-01-30T05:33:30;15.23;;;5.10;;
10381;SDS011;11635;53.636;10.120;2023-01-30T05:35:58;10.18;;;4.18;;
10381;SDS011;11635;53.636;10.120;2023-01-30T05:38:25;17.05;;;4.60;;
10381;SDS011;11635;53.636;10.120;2023-01-30T05:40:59;9.27;;;3.95;;
10381;SDS011;11635;53.636;10.120;2023-01-30T05:43:26;10.23;;;3.63;;
10381;SDS011;11635;53.636;10.120;2023-01-30T05:45:53;16.38;;;3.85;;
10381;SDS011;11635;53.636;10.120;2023-01-30T05:48:20;13.32;;;4.32;;
10381;SDS011;11635;53.636;10.120;2023-01-30T05:50:48;11.85;;;3.42;;
10381;SDS011;11635;53.636;10.120;2023-01-30T05:53:17;9.30;;;3.38;;
10381;SDS011;11635;53.636;10.120;2023-01-30T05:55:43;11.02;;;3.42;;
10381;SDS011;11635;53.636;10.120;2023-01-30T05:58:11;15.15;;;3.58;;
10381;SDS011;11635;53.636;10.120;2023-01-30T06:00:38;13.88;;;3.13;;
10381;SDS011;11635;53.636;10.120;2023-01-30T06:03:06;12.18;;;3.75;;
10381;SDS011;11635;53.636;10.120;2023-01-30T06:05:32;10.82;;;3.22;;
10381;SDS011;11635;53.636;10.120;2023-01-30T06:08:02;16.50;;;4.03;;
10381;SDS011;11635;53.636;10.120;2023-01-30T06:10:29;17.02;;;3.65;;
10381;SDS011;11635;53.636;10.120;2023-01-30T06:12:56;18.48;;;3.53;;
10381;SDS011;11635;53.636;10.120;2023-01-30T06:15:23;21.52;;;4.20;;
10381;SDS011;11635;53.636;10.120;2023-01-30T06:17:50;14.38;;;2.95;;
10381;SDS011;11635;53.636;10.120;2023-01-30T06:20:17;14.27;;;3.38;;
10381;SDS011;11635;53.636;10.120;2023-01-30T06:22:43;15.23;;;3.50;;
10381;SDS011;11635;53.636;10.120;2023-01-30T06:25:10;23.65;;;3.50;;
10381;SDS011;11635;53.636;10.120;2023-01-30T06:27:38;15.77;;;3.50;;
10381;SDS011;11635;53.636;10.120;2023-01-30T06:30:05;14.75;;;3.55;;
10381;SDS011;11635;53.636;10.120;2023-01-30T06:32:32;16.77;;;3.28;;
10381;SDS011;11635;53.636;10.120;2023-01-30T06:34:59;11.70;;;2.78;;
10381;SDS011;11635;53.636;10.120;2023-01-30T06:37:26;13.98;;;3.33;;
10381;SDS011;11635;53.636;10.120;2023-01-30T06:39:57;10.77;;;2.70;;
10381;SDS011;11635;53.636;10.120;2023-01-30T06:42:24;20.45;;;3.28;;
10381;SDS011;11635;53.636;10.120;2023-01-30T06:44:53;13.43;;;4.07;;
10381;SDS011;11635;53.636;10.120;2023-01-30T06:47:20;14.43;;;3.88;;
10381;SDS011;11635;53.636;10.120;2023-01-30T06:49:47;16.20;;;3.20;;
10381;SDS011;11635;53.636;10.120;2023-01-30T06:52:14;16.02;;;3.40;;
10381;SDS011;11635;53.636;10.120;2023-01-30T06:54:43;14.05;;;3.08;;
10381;SDS011;11635;53.636;10.120;2023-01-30T06:57:12;10.32;;;2.78;;
10381;SDS011;11635;53.636;10.120;2023-01-30T06:59:42;13.52;;;3.42;;
10381;SDS011;11635;53.636;10.120;2023-01-30T07:02:12;9.70;;;3.30;;
10381;SDS011;11635;53.636;10.120;2023-01-30T07:04:38;16.83;;;3.28;;
10381;SDS011;11635;53.636;10.120;2023-01-30T07:07:05;17.45;;;4.03;;
10381;SDS011;11635;53.636;10.120;2023-01-30T07:09:33;17.02;;;3.50;;
10381;SDS011;11635;53.636;10.120;2023-01-30T07:11:59;16.30;;;3.33;;
10381;SDS011;11635;53.636;10.120;2023-01-30T07:14:26;18.10;;;4.18;;
10381;SDS011;11635;53.636;10.120;2023-01-30T07:16:52;12.65;;;3.63;;
10381;SDS011;11635;53.636;10.120;2023-01-30T07:19:20;19.65;;;4.03;;
10381;SDS011;11635;53.636;10.120;2023-01-30T07:21:47;15.68;;;3.17;;
10381;SDS011;11635;53.636;10.120;2023-01-30T07:24:13;19.13;;;3.78;;
10381;SDS011;11635;53.636;10.120;2023-01-30T07:26:39;13.50;;;2.78;;
10381;SDS011;11635;53.636;10.120;2023-01-30T07:29:06;13.10;;;3.13;;
10381;SDS011;11635;53.636;10.120;2023-01-30T07:31:34;18.38;;;3.60;;
10381;SDS011;11635;53.636;10.120;2023-01-30T07:34:03;18.75;;;3.33;;
10381;SDS011;11635;53.636;10.120;2023-01-30T07:36:32;25.88;;;4.15;;
10381;SDS011;11635;53.636;10.120;2023-01-30T07:39:02;22.92;;;3.75;;
10381;SDS011;11635;53.636;10.120;2023-01-30T07:41:30;17.75;;;3.90;;
10381;SDS011;11635;53.636;10.120;2023-01-30T07:43:58;18.67;;;3.40;;
10381;SDS011;11635;53.636;10.120;2023-01-30T07:46:25;21.77;;;4.78;;
10381;SDS011;11635;53.636;10.120;2023-01-30T07:48:54;13.32;;;4.15;;
10381;SDS011;11635;53.636;10.120;2023-01-30T07:51:20;19.48;;;3.65;;
10381;SDS011;11635;53.636;10.120;2023-01-30T07:53:49;16.10;;;4.00;;
10381;SDS011;11635;53.636;10.120;2023-01-30T07:56:16;20.80;;;4.60;;
10381;SDS011;11635;53.636;10.120;2023-01-30T07:58:45;18.38;;;3.97;;
10381;SDS011;11635;53.636;10.120;2023-01-30T08:01:12;19.17;;;4.97;;
10381;SDS011;11635;53.636;10.120;2023-01-30T08:03:40;23.73;;;4.63;;
10381;SDS011;11635;53.636;10.120;2023-01-30T08:06:08;20.55;;;4.63;;
10381;SDS011;11635;53.636;10.120;2023-01-30T08:08:36;21.40;;;5.53;;
10381;SDS011;11635;53.636;10.120;2023-01-30T08:11:05;24.30;;;4.88;;
10381;SDS011;11635;53.636;10.120;2023-01-30T08:13:41;28.20;;;5.18;;
10381;SDS011;11635;53.636;10.120;2023-01-30T08:16:11;25.67;;;5.68;;
10381;SDS011;11635;53.636;10.120;2023-01-30T08:18:38;25.70;;;5.55;;
10381;SDS011;11635;53.636;10.120;2023-01-30T08:21:06;22.75;;;5.43;;
10381;SDS011;11635;53.636;10.120;2023-01-30T08:23:35;32.15;;;6.18;;
10381;SDS011;11635;53.636;10.120;2023-01-30T08:26:02;27.13;;;5.82;;
10381;SDS011;11635;53.636;10.120;2023-01-30T08:28:31;18.15;;;4.47;;
10381;SDS011;11635;53.636;10.120;2023-01-30T08:30:59;27.65;;;6.30;;
10381;SDS011;11635;53.636;10.120;2023-01-30T08:33:29;25.92;;;5.32;;
10381;SDS011;11635;53.636;10.120;2023-01-30T08:35:55;24.98;;;5.25;;
10381;SDS011;11635;53.636;10.120;2023-01-30T08:38:22;28.00;;;5.70;;
10381;SDS011;11635;53.636;10.120;2023-01-30T08:40:48;29.17;;;6.13;;
10381;SDS011;11635;53.636;10.120;2023-01-30T08:43:14;21.95;;;4.95;;
10381;SDS011;11635;53.636;10.120;2023-01-30T08:45:42;24.70;;;6.20;;
10381;SDS011;11635;53.636;10.120;2023-01-30T08:48:08;29.23;;;6.38;;
10381;SDS011;11635;53.636;10.120;2023-01-30T08:50:35;31.98;;;6.82;;
10381;SDS011;11635;53.636;10.120;2023-01-30T08:53:02;32.75;;;7.32;;
10381;SDS011;11635;53.636;10.120;2023-01-30T08:55:28;40.42;;;7.10;;
10381;SDS011;11635;53.636;10.120;2023-01-30T08:57:55;33.25;;;7.40;;
10381;SDS011;11635;53.636;10.120;2023-01-30T09:00:21;27.55;;;8.20;;
10381;SDS011;11635;53.636;10.120;2023-01-30T09:02:52;23.00;;;6.18;;
10381;SDS011;11635;53.636;10.120;2023-01-30T09:05:18;21.85;;;6.00;;
10381;SDS011;11635;53.636;10.120;2023-01-30T09:07:45;26.42;;;6.07;;
10381;SDS011;11635;53.636;10.120;2023-01-30T09:10:11;33.65;;;6.47;;
10381;SDS011;11635;53.636;10.120;2023-01-30T09:12:37;30.77;;;7.20;;
10381;SDS011;11635;53.636;10.120;2023-01-30T09:15:04;29.08;;;5.50;;
10381;SDS011;11635;53.636;10.120;2023-01-30T09:17:31;26.13;;;6.40;;
10381;SDS011;11635;53.636;10.120;2023-01-30T09:19:59;31.05;;;6.30;;
10381;SDS011;11635;53.636;10.120;2023-01-30T09:22:25;34.85;;;7.25;;
10381;SDS011;11635;53.636;10.120;2023-01-30T09:24:51;29.90;;;7.10;;
10381;SDS011;11635;53.636;10.120;2023-01-30T09:27:18;26.55;;;6.50;;
10381;SDS011;11635;53.636;10.120;2023-01-30T09:29:44;28.90;;;5.82;;
10381;SDS011;11635;53.636;10.120;2023-01-30T09:32:10;28.02;;;6.63;;
10381;SDS011;11635;53.636;10.120;2023-01-30T09:34:37;28.25;;;6.55;;
10381;SDS011;11635;53.636;10.120;2023-01-30T09:37:04;30.08;;;6.15;;
10381;SDS011;11635;53.636;10.120;2023-01-30T09:39:32;26.58;;;5.65;;
10381;SDS011;11635;53.636;10.120;2023-01-30T09:42:04;24.05;;;5.35;;
10381;SDS011;11635;53.636;10.120;2023-01-30T09:44:46;25.38;;;6.18;;
10381;SDS011;11635;53.636;10.120;2023-01-30T09:47:17;20.27;;;5.55;;
10381;SDS011;11635;53.636;10.120;2023-01-30T09:49:47;20.77;;;4.25;;
10381;SDS011;11635;53.636;10.120;2023-01-30T09:52:19;16.67;;;4.80;;
10381;SDS011;11635;53.636;10.120;2023-01-30T09:54:48;25.45;;;6.10;;
10381;SDS011;11635;53.636;10.120;2023-01-30T09:57:15;22.38;;;5.35;;
10381;SDS011;11635;53.636;10.120;2023-01-30T09:59:45;18.65;;;4.93;;
10381;SDS011;11635;53.636;10.120;2023-01-30T10:02:20;23.70;;;6.18;;
10381;SDS011;11635;53.636;10.120;2023-01-30T10:04:49;22.80;;;5.25;;
10381;SDS011;11635;53.636;10.120;2023-01-30T10:07:19;25.88;;;5.40;;
10381;SDS011;11635;53.636;10.120;2023-01-30T10:09:52;24.88;;;5.38;;
10381;SDS011;11635;53.636;10.120;2023-01-30T10:12:24;15.75;;;4.53;;
10381;SDS011;11635;53.636;10.120;2023-01-30T10:14:57;20.27;;;3.67;;
10381;SDS011;11635;53.636;10.120;2023-01-30T10:17:30;18.48;;;4.45;;
10381;SDS011;11635;53.636;10.120;2023-01-30T10:20:14;14.77;;;4.68;;
10381;SDS011;11635;53.636;10.120;2023-01-30T10:22:44;26.52;;;4.50;;
10381;SDS011;11635;53.636;10.120;2023-01-30T10:25:19;22.80;;;4.32;;
10381;SDS011;11635;53.636;10.120;2023-01-30T10:27:50;23.70;;;5.70;;
10381;SDS011;11635;53.636;10.120;2023-01-30T10:30:17;15.93;;;4.45;;
10381;SDS011;11635;53.636;10.120;2023-01-30T10:32:45;14.55;;;3.70;;
10381;SDS011;11635;53.636;10.120;2023-01-30T10:35:14;14.18;;;3.85;;
10381;SDS011;11635;53.636;10.120;2023-01-30T10:37:43;11.55;;;3.72;;
10381;SDS011;11635;53.636;10.120;2023-01-30T10:40:13;12.60;;;3.42;;
10381;SDS011;11635;53.636;10.120;2023-01-30T10:42:44;16.13;;;3.22;;
10381;SDS011;11635;53.636;10.120;2023-01-30T10:45:12;13.45;;;2.60;;
10381;SDS011;11635;53.636;10.120;2023-01-30T10:47:53;11.85;;;3.30;;
10381;SDS011;11635;53.636;10.120;2023-01-30T10:50:24;7.40;;;2.30;;
10381;SDS011;11635;53.636;10.120;2023-01-30T10:52:55;11.98;;;3.00;;
10381;SDS011;11635;53.636;10.120;2023-01-30T10:55:28;11.30;;;3.08;;
10381;SDS011;11635;53.636;10.120;2023-01-30T10:57:57;13.23;;;3.30;;
10381;SDS011;11635;53.636;10.120;2023-01-30T11:00:27;14.65;;;3.63;;
10381;SDS011;11635;53.636;10.120;2023-01-30T11:02:58;20.02;;;4.28;;
10381;SDS011;11635;53.636;10.120;2023-01-30T11:05:28;19.60;;;4.03;;
10381;SDS011;11635;53.636;10.120;2023-01-30T11:07:57;16.48;;;3.90;;
10381;SDS011;11635;53.636;10.120;2023-01-30T11:10:24;15.75;;;4.65;;
10381;SDS011;11635;53.636;10.120;2023-01-30T11:12:51;7.97;;;2.65;;
10381;SDS011;11635;53.636;10.120;2023-01-30T11:15:19;8.20;;;2.22;;
10381;SDS011;11635;53.636;10.120;2023-01-30T11:17:48;3.33;;;1.60;;
10381;SDS011;11635;53.636;10.120;2023-01-30T11:20:15;11.48;;;2.40;;
10381;SDS011;11635;53.636;10.120;2023-01-30T11:22:46;4.80;;;1.60;;
10381;SDS011;11635;53.636;10.120;2023-01-30T11:25:14;6.60;;;1.63;;
10381;SDS011;11635;53.636;10.120;2023-01-30T11:27:41;4.55;;;1.25;;
10381;SDS011;11635;53.636;10.120;2023-01-30T11:30:11;4.65;;;1.85;;
10381;SDS011;11635;53.636;10.120;2023-01-30T11:32:40;4.65;;;1.42;;
10381;SDS011;11635;53.636;10.120;2023-01-30T11:37:51;4.07;;;1.52;;
10381;SDS011;11635;53.636;10.120;2023-01-30T11:40:21;2.90;;;1.58;;
10381;SDS011;11635;53.636;10.120;2023-01-30T11:42:50;5.00;;;1.52;;
10381;SDS011;11635;53.636;10.120;2023-01-30T11:45:17;9.07;;;2.13;;
10381;SDS011;11635;53.636;10.120;2023-01-30T11:47:47;5.80;;;1.95;;
10381;SDS011;11635;53.636;10.120;2023-01-30T11:50:14;5.18;;;1.52;;
10381;SDS011;11635;53.636;10.120;2023-01-30T11:52:42;8.82;;;2.40;;
10381;SDS011;11635;53.636;10.120;2023-01-30T11:55:10;6.32;;;1.92;;
10381;SDS011;11635;53.636;10.120;2023-01-30T11:57:38;13.85;;;2.63;;
10381;SDS011;11635;53.636;10.120;2023-01-30T12:00:11;14.13;;;2.72;;
10381;SDS011;11635;53.636;10.120;2023-01-30T12:02:38;15.23;;;3.78;;
10381;SDS011;11635;53.636;10.120;2023-01-30T12:05:15;12.02;;;1.92;;
10381;SDS011;11635;53.636;10.120;2023-01-30T12:07:43;8.32;;;3.40;;
10381;SDS011;11635;53.636;10.120;2023-01-30T12:10:18;13.80;;;3.47;;
10381;SDS011;11635;53.636;10.120;2023-01-30T12:12:51;16.10;;;3.17;;
10381;SDS011;11635;53.636;10.120;2023-01-30T12:15:20;14.75;;;3.05;;
10381;SDS011;11635;53.636;10.120;2023-01-30T12:17:48;16.52;;;3.05;;
10381;SDS011;11635;53.636;10.120;2023-01-30T12:20:18;11.18;;;2.33;;
10381;SDS011;11635;53.636;10.120;2023-01-30T12:22:51;13.52;;;3.95;;
10381;SDS011;11635;53.636;10.120;2023-01-30T12:25:22;10.25;;;2.80;;
10381;SDS011;11635;53.636;10.120;2023-01-30T12:27:53;11.20;;;3.28;;
10381;SDS011;11635;53.636;10.120;2023-01-30T12:30:24;12.98;;;3.22;;
10381;SDS011;11635;53.636;10.120;2023-01-30T12:32:52;9.88;;;2.00;;
10381;SDS011;11635;53.636;10.120;2023-01-30T12:35:24;4.40;;;1.67;;
10381;SDS011;11635;53.636;10.120;2023-01-30T12:37:56;4.95;;;1.95;;
10381;SDS011;11635;53.636;10.120;2023-01-30T12:40:29;4.80;;;1.60;;
10381;SDS011;11635;53.636;10.120;2023-01-30T12:43:08;7.28;;;2.40;;
10381;SDS011;11635;53.636;10.120;2023-01-30T12:45:40;6.57;;;2.03;;
10381;SDS011;11635;53.636;10.120;2023-01-30T12:48:21;8.77;;;1.48;;
10381;SDS011;11635;53.636;10.120;2023-01-30T12:50:58;8.90;;;1.63;;
10381;SDS011;11635;53.636;10.120;2023-01-30T12:53:31;9.43;;;2.58;;
10381;SDS011;11635;53.636;10.120;2023-01-30T12:56:08;8.93;;;1.95;;
10381;SDS011;11635;53.636;10.120;2023-01-30T12:58:38;11.50;;;2.28;;
10381;SDS011;11635;53.636;10.120;2023-01-30T13:01:12;11.30;;;3.00;;
10381;SDS011;11635;53.636;10.120;2023-01-30T13:03:41;13.73;;;3.58;;
10381;SDS011;11635;53.636;10.120;2023-01-30T13:06:20;16.05;;;2.88;;
10381;SDS011;11635;53.636;10.120;2023-01-30T13:08:52;14.63;;;2.90;;
10381;SDS011;11635;53.636;10.120;2023-01-30T13:11:28;10.32;;;3.10;;
10381;SDS011;11635;53.636;10.120;2023-01-30T13:13:56;11.80;;;3.58;;
10381;SDS011;11635;53.636;10.120;2023-01-30T13:16:28;16.67;;;3.78;;
10381;SDS011;11635;53.636;10.120;2023-01-30T13:18:58;17.98;;;3.88;;
10381;SDS011;11635;53.636;10.120;2023-01-30T13:21:30;16.65;;;4.25;;
10381;SDS011;11635;53.636;10.120;2023-01-30T13:24:06;20.85;;;4.38;;
10381;SDS011;11635;53.636;10.120;2023-01-30T13:26:38;20.35;;;4.75;;
10381;SDS011;11635;53.636;10.120;2023-01-30T13:29:09;22.98;;;4.43;;
10381;SDS011;11635;53.636;10.120;2023-01-30T13:31:38;22.88;;;5.25;;
10381;SDS011;11635;53.636;10.120;2023-01-30T13:34:09;21.50;;;4.78;;
10381;SDS011;11635;53.636;10.120;2023-01-30T13:36:41;19.55;;;5.18;;
10381;SDS011;11635;53.636;10.120;2023-01-30T13:39:09;27.30;;;6.03;;
10381;SDS011;11635;53.636;10.120;2023-01-30T13:41:38;18.90;;;5.97;;
10381;SDS011;11635;53.636;10.120;2023-01-30T13:44:05;22.48;;;5.93;;
10381;SDS011;11635;53.636;10.120;2023-01-30T13:46:38;23.13;;;5.30;;
10381;SDS011;11635;53.636;10.120;2023-01-30T13:49:06;19.23;;;5.25;;
10381;SDS011;11635;53.636;10.120;2023-01-30T13:51:42;16.05;;;4.60;;
10381;SDS011;11635;53.636;10.120;2023-01-30T13:54:13;15.38;;;4.15;;
10381;SDS011;11635;53.636;10.120;2023-01-30T13:56:42;15.65;;;3.67;;
10381;SDS011;11635;53.636;10.120;2023-01-30T13:59:13;12.68;;;4.30;;
10381;SDS011;11635;53.636;10.120;2023-01-30T14:02:07;15.02;;;3.28;;
10381;SDS011;11635;53.636;10.120;2023-01-30T14:04:47;15.63;;;4.20;;
10381;SDS011;11635;53.636;10.120;2023-01-30T14:07:16;13.98;;;3.28;;
10381;SDS011;11635;53.636;10.120;2023-01-30T14:09:44;16.55;;;3.90;;
10381;SDS011;11635;53.636;10.120;2023-01-30T14:12:15;10.07;;;3.40;;
10381;SDS011;11635;53.636;10.120;2023-01-30T14:14:42;15.88;;;4.38;;
10381;SDS011;11635;53.636;10.120;2023-01-30T14:17:22;20.20;;;4.63;;
10381;SDS011;11635;53.636;10.120;2023-01-30T14:19:53;18.00;;;5.13;;
10381;SDS011;11635;53.636;10.120;2023-01-30T14:22:27;22.33;;;4.40;;
10381;SDS011;11635;53.636;10.120;2023-01-30T14:27:45;24.85;;;6.10;;
10381;SDS011;11635;53.636;10.120;2023-01-30T14:30:33;24.58;;;5.38;;
10381;SDS011;11635;53.636;10.120;2023-01-30T14:33:00;24.73;;;4.68;;
10381;SDS011;11635;53.636;10.120;2023-01-30T14:35:27;22.10;;;5.03;;
10381;SDS011;11635;53.636;10.120;2023-01-30T14:38:07;22.13;;;4.72;;
10381;SDS011;11635;53.636;10.120;2023-01-30T14:40:35;23.30;;;8.07;;
10381;SDS011;11635;53.636;10.120;2023-01-30T14:45:47;19.30;;;4.65;;